createdAt,value
2023-01-04T00:01:08.499Z,1.02
2023-01-04T00:04:11.769Z,1.58
2023-01-04T00:07:15.078Z,1.02
2023-01-04T00:10:18.071Z,1.95
2023-01-04T00:13:20.739Z,1.23
2023-01-04T00:16:25.353Z,0.95
2023-01-04T00:19:28.115Z,1.08
2023-01-04T00:22:34.919Z,1.23
2023-01-04T00:25:41.163Z,1.25
2023-01-04T00:28:50.053Z,2.77
2023-01-04T00:31:56.620Z,2.47
2023-01-04T00:35:00.123Z,2.65
2023-01-04T00:38:02.952Z,1.48
2023-01-04T00:41:06.620Z,2.33
2023-01-04T00:44:10.144Z,1.92
2023-01-04T00:47:13.093Z,2.03
2023-01-04T00:50:16.055Z,1.10
2023-01-04T00:53:19.369Z,1.45
2023-01-04T00:56:22.355Z,0.75
2023-01-04T00:59:25.207Z,1.13
2023-01-04T01:02:28.363Z,1.77
2023-01-04T01:05:33.603Z,2.10
2023-01-04T01:08:36.309Z,2.42
2023-01-04T01:11:40.364Z,1.83
2023-01-04T01:14:43.175Z,2.17
2023-01-04T01:17:45.704Z,1.98
2023-01-04T01:20:48.317Z,1.23
2023-01-04T01:23:51.760Z,1.08
2023-01-04T01:26:54.977Z,1.05
2023-01-04T01:29:58.074Z,1.10
2023-01-04T01:33:00.786Z,0.90
2023-01-04T01:36:04.570Z,1.27
2023-01-04T01:39:07.221Z,0.90
2023-01-04T01:42:18.995Z,0.80
2023-01-04T01:45:34.749Z,1.05
2023-01-04T01:48:37.817Z,0.85
2023-01-04T01:51:41.474Z,2.00
2023-01-04T01:54:52.412Z,2.30
2023-01-04T01:57:55.820Z,0.88
2023-01-04T02:00:58.842Z,1.35
2023-01-04T02:04:02.365Z,1.75
2023-01-04T02:07:05.969Z,1.52
2023-01-04T02:10:09.126Z,1.70
2023-01-04T02:13:16.026Z,1.33
2023-01-04T02:16:22.479Z,1.27
2023-01-04T02:20:02.927Z,1.17
2023-01-04T02:23:24.298Z,0.82
2023-01-04T02:26:35.691Z,1.67
2023-01-04T02:29:50.333Z,2.10
2023-01-04T02:33:05.697Z,2.33
2023-01-04T02:36:16.910Z,2.22
2023-01-04T02:39:35.204Z,1.58
2023-01-04T02:43:18.570Z,2.00
2023-01-04T02:46:30.026Z,2.08
2023-01-04T02:49:51.297Z,4.18
2023-01-04T02:52:54.003Z,2.53
2023-01-04T02:56:35.861Z,1.60
2023-01-04T02:59:41.558Z,3.58
2023-01-04T03:03:30.879Z,1.65
2023-01-04T03:06:42.427Z,1.83
2023-01-04T03:09:48.037Z,3.92
2023-01-04T03:13:04.287Z,1.67
2023-01-04T03:16:12.567Z,2.35
2023-01-04T03:19:36.763Z,5.32
2023-01-04T03:23:05.433Z,5.20
2023-01-04T03:26:52.773Z,2.30
2023-01-04T03:30:21.208Z,1.67
2023-01-04T03:33:43.180Z,1.15
2023-01-04T03:37:19.642Z,0.60
2023-01-04T03:40:46.848Z,1.17
2023-01-04T03:44:23.426Z,3.00
2023-01-04T03:48:04.600Z,2.25
2023-01-04T03:51:17.327Z,3.28
2023-01-04T03:54:28.027Z,3.42
2023-01-04T03:57:31.050Z,3.58
2023-01-04T04:00:34.764Z,1.00
2023-01-04T04:03:56.035Z,0.57
2023-01-04T04:07:17.563Z,0.80
2023-01-04T04:10:20.249Z,1.02
2023-01-04T04:13:23.340Z,1.25
2023-01-04T04:16:26.640Z,0.80
2023-01-04T04:19:29.328Z,2.17
2023-01-04T04:22:31.929Z,4.43
2023-01-04T04:25:34.692Z,3.72
2023-01-04T04:28:37.934Z,2.38
2023-01-04T04:31:40.757Z,1.52
2023-01-04T04:34:43.465Z,2.10
2023-01-04T04:37:46.007Z,2.55
2023-01-04T04:41:08.253Z,1.60
2023-01-04T04:44:13.807Z,0.57
2023-01-04T04:47:17.100Z,1.02
2023-01-04T04:50:22.120Z,3.83
2023-01-04T04:53:24.874Z,0.80
2023-01-04T04:56:27.577Z,0.68
2023-01-04T04:59:30.810Z,1.10
2023-01-04T05:02:33.416Z,2.75
2023-01-04T05:05:36.056Z,4.35
2023-01-04T05:08:38.698Z,2.30
2023-01-04T05:12:00.295Z,2.35
2023-01-04T05:15:03.368Z,3.10
2023-01-04T05:18:07.318Z,2.25
2023-01-04T05:21:10.012Z,2.08
2023-01-04T05:24:13.123Z,1.40
2023-01-04T05:27:15.939Z,5.47
2023-01-04T05:30:37.520Z,1.67
2023-01-04T05:33:40.248Z,2.28
2023-01-04T05:36:42.878Z,1.55
2023-01-04T05:39:45.432Z,2.00
2023-01-04T05:42:48.503Z,1.95
2023-01-04T05:45:56.035Z,9.38
2023-01-04T05:48:58.811Z,2.70
2023-01-04T05:52:02.692Z,2.80
2023-01-04T05:55:05.849Z,1.10
2023-01-04T05:58:09.135Z,2.15
2023-01-04T06:01:12.858Z,19.23
2023-01-04T06:04:15.621Z,2.30
2023-01-04T06:07:18.528Z,1.27
2023-01-04T06:10:21.120Z,1.42
2023-01-04T06:13:23.735Z,0.77
2023-01-04T06:16:26.392Z,1.23
2023-01-04T06:19:29.237Z,1.35
2023-01-04T06:22:33.084Z,1.23
2023-01-04T06:25:35.710Z,1.83
2023-01-04T06:28:41.140Z,3.50
2023-01-04T06:31:44.224Z,3.20
2023-01-04T06:34:47.014Z,3.88
2023-01-04T06:37:49.680Z,2.28
2023-01-04T06:40:52.697Z,2.30
2023-01-04T06:43:55.433Z,2.50
2023-01-04T06:46:58.021Z,2.75
2023-01-04T06:50:00.977Z,2.42
2023-01-04T06:53:03.713Z,4.35
2023-01-04T06:56:08.357Z,3.83
2023-01-04T06:59:11.090Z,2.55
2023-01-04T07:02:17.384Z,16.95
2023-01-04T07:05:20.268Z,2.80
2023-01-04T07:08:23.542Z,2.20
2023-01-04T07:11:26.265Z,2.80
2023-01-04T07:14:29.244Z,3.40
2023-01-04T07:17:31.889Z,4.50
2023-01-04T07:20:34.583Z,3.63
2023-01-04T07:23:37.341Z,2.97
2023-01-04T07:26:40.150Z,3.03
2023-01-04T07:29:44.543Z,3.58
2023-01-04T07:32:47.360Z,2.60
2023-01-04T07:35:50.117Z,3.15
2023-01-04T07:38:52.798Z,1.92
2023-01-04T07:41:55.665Z,5.10
2023-01-04T07:45:00.293Z,3.45
2023-01-04T07:48:03.345Z,2.20
2023-01-04T07:51:06.038Z,2.45
2023-01-04T07:54:10.428Z,3.25
2023-01-04T07:57:13.354Z,1.55
2023-01-04T08:00:16.537Z,2.10
2023-01-04T08:03:19.639Z,1.92
2023-01-04T08:06:22.523Z,2.70
2023-01-04T08:09:25.663Z,2.13
2023-01-04T08:12:28.519Z,0.70
2023-01-04T08:15:31.589Z,1.33
2023-01-04T08:18:34.861Z,1.33
2023-01-04T08:21:38.056Z,12.02
2023-01-04T08:24:40.778Z,7.07
2023-01-04T08:27:43.623Z,7.45
2023-01-04T08:30:46.665Z,10.25
2023-01-04T08:33:50.429Z,9.95
2023-01-04T08:36:54.412Z,11.88
2023-01-04T08:39:57.076Z,15.27
2023-01-04T08:43:00.146Z,9.85
2023-01-04T08:46:04.498Z,10.13
2023-01-04T08:49:07.928Z,6.95
2023-01-04T08:52:11.991Z,6.53
2023-01-04T08:55:21.527Z,5.40
2023-01-04T08:58:26.007Z,4.18
2023-01-04T09:01:29.286Z,4.10
2023-01-04T09:04:32.194Z,9.85
2023-01-04T09:07:35.076Z,4.20
2023-01-04T09:10:40.922Z,4.22
2023-01-04T09:13:44.652Z,4.75
2023-01-04T09:16:47.669Z,4.13
2023-01-04T09:19:50.889Z,4.38
2023-01-04T09:22:53.653Z,4.03
2023-01-04T09:25:57.064Z,4.38
2023-01-04T09:29:03.835Z,4.85
2023-01-04T09:32:10.249Z,4.80
2023-01-04T09:35:17.847Z,4.30
2023-01-04T09:38:20.746Z,3.90
2023-01-04T09:41:28.507Z,2.95
2023-01-04T09:47:59.970Z,2.20
2023-01-04T09:51:07.623Z,2.45
2023-01-04T09:54:17.409Z,2.90
2023-01-04T09:57:27.728Z,2.25
2023-01-04T10:00:43.417Z,2.50
2023-01-04T10:04:21.541Z,2.17
2023-01-04T10:07:29.477Z,3.00
2023-01-04T10:10:55.483Z,3.10
2023-01-04T10:14:35.471Z,2.40
2023-01-04T10:21:38.837Z,3.20
2023-01-04T10:24:48.858Z,1.92
2023-01-04T10:28:03.978Z,1.88
2023-01-04T10:31:40.756Z,2.50
2023-01-04T10:34:46.203Z,3.40
2023-01-04T10:37:52.153Z,2.42
2023-01-04T10:40:58.138Z,3.47
2023-01-04T10:44:14.511Z,3.72
2023-01-04T10:47:33.285Z,3.83
2023-01-04T10:50:54.000Z,3.08
2023-01-04T10:53:58.544Z,3.08
2023-01-04T10:57:08.498Z,3.40
2023-01-04T11:00:20.301Z,3.15
2023-01-04T11:03:52.171Z,3.00
2023-01-04T11:07:09.116Z,3.80
2023-01-04T11:10:23.547Z,2.83
2023-01-04T11:13:26.877Z,2.67
2023-01-04T11:16:30.038Z,2.28
2023-01-04T11:19:33.570Z,3.20
2023-01-04T11:22:54.443Z,2.95
2023-01-04T11:26:00.022Z,4.00
2023-01-04T11:29:07.773Z,3.20
2023-01-04T11:32:23.183Z,3.28
2023-01-04T11:35:42.480Z,3.13
2023-01-04T11:38:55.303Z,3.65
2023-01-04T11:42:03.191Z,3.95
2023-01-04T11:45:07.069Z,3.75
2023-01-04T11:48:15.266Z,2.85
2023-01-04T11:51:32.128Z,2.95
2023-01-04T11:54:34.906Z,3.57
2023-01-04T11:57:37.976Z,3.63
2023-01-04T12:00:58.330Z,3.25
2023-01-04T12:04:01.333Z,3.58
2023-01-04T12:07:10.148Z,3.70
2023-01-04T12:10:27.512Z,4.30
2023-01-04T12:13:32.249Z,5.57
2023-01-04T12:16:41.140Z,5.07
2023-01-04T12:19:45.037Z,5.13
2023-01-04T12:22:48.035Z,4.50
2023-01-04T12:25:51.754Z,4.75
2023-01-04T12:29:23.862Z,3.85
2023-01-04T12:32:26.753Z,4.72
2023-01-04T12:36:08.656Z,4.65
2023-01-04T12:39:14.528Z,3.90
2023-01-04T12:42:24.795Z,4.18
2023-01-04T12:45:27.844Z,4.90
2023-01-04T12:48:49.122Z,3.35
2023-01-04T12:52:31.978Z,4.07
2023-01-04T12:55:35.180Z,4.07
2023-01-04T12:59:15.223Z,4.05
2023-01-04T13:02:20.554Z,4.50
2023-01-04T13:08:47.881Z,5.22
2023-01-04T13:11:53.513Z,7.70
2023-01-04T13:15:06.374Z,7.10
2023-01-04T13:18:27.018Z,8.30
2023-01-04T13:21:40.142Z,6.20
2023-01-04T13:24:44.159Z,9.43
2023-01-04T13:28:01.530Z,7.03
2023-01-04T13:31:04.605Z,6.15
2023-01-04T13:34:16.944Z,6.43
2023-01-04T13:37:35.287Z,7.55
2023-01-04T13:40:48.855Z,6.07
2023-01-04T13:44:12.351Z,10.65
2023-01-04T13:47:15.777Z,6.63
2023-01-04T13:50:40.458Z,5.43
2023-01-04T13:53:52.444Z,8.20
2023-01-04T13:57:08.959Z,9.15
2023-01-04T14:00:14.357Z,10.33
2023-01-04T14:03:40.485Z,12.13
2023-01-04T14:06:49.235Z,12.07
2023-01-04T14:09:55.314Z,13.23
2023-01-04T14:12:58.320Z,10.82
2023-01-04T14:16:13.417Z,8.43
2023-01-04T14:19:35.260Z,6.25
2023-01-04T14:22:45.798Z,7.70
2023-01-04T14:25:56.842Z,6.63
2023-01-04T14:29:00.025Z,6.05
2023-01-04T14:32:03.749Z,7.25
2023-01-04T14:35:12.074Z,7.95
2023-01-04T14:38:18.394Z,7.70
2023-01-04T14:41:27.752Z,7.82
2023-01-04T14:44:31.801Z,7.47
2023-01-04T14:47:35.847Z,9.27
2023-01-04T14:50:38.512Z,8.32
2023-01-04T14:53:42.525Z,10.63
2023-01-04T14:56:45.297Z,9.65
2023-01-04T14:59:48.812Z,10.70
2023-01-04T15:02:52.619Z,10.82
2023-01-04T15:05:55.823Z,8.57
2023-01-04T15:08:58.816Z,8.57
2023-01-04T15:12:01.523Z,9.23
2023-01-04T15:15:04.937Z,7.43
2023-01-04T15:18:08.211Z,8.52
2023-01-04T15:21:12.084Z,8.57
2023-01-04T15:24:14.885Z,20.25
2023-01-04T15:27:18.015Z,10.27
2023-01-04T15:30:20.957Z,8.40
2023-01-04T15:33:24.023Z,8.45
2023-01-04T15:36:27.099Z,8.18
2023-01-04T15:39:29.809Z,8.25
2023-01-04T15:42:51.582Z,8.10
2023-01-04T15:45:54.381Z,8.80
2023-01-04T15:48:57.654Z,8.48
2023-01-04T15:52:00.966Z,8.07
2023-01-04T15:55:04.302Z,6.38
2023-01-04T15:58:07.696Z,9.07
2023-01-04T16:01:13.035Z,7.95
2023-01-04T16:04:16.654Z,7.85
2023-01-04T16:07:20.171Z,8.93
2023-01-04T16:10:23.269Z,16.08
2023-01-04T16:13:26.597Z,23.55
2023-01-04T16:16:29.814Z,23.05
2023-01-04T16:19:34.720Z,17.92
2023-01-04T16:22:37.771Z,14.77
2023-01-04T16:25:40.799Z,13.45
2023-01-04T16:28:43.875Z,11.85
2023-01-04T16:31:47.202Z,12.70
2023-01-04T16:34:51.549Z,13.77
2023-01-04T16:37:54.932Z,14.60
2023-01-04T16:41:00.167Z,10.68
2023-01-04T16:44:05.666Z,8.82
2023-01-04T16:47:08.691Z,7.93
2023-01-04T16:50:12.987Z,7.47
2023-01-04T16:53:15.930Z,8.05
2023-01-04T16:56:20.835Z,8.82
2023-01-04T16:59:24.021Z,7.78
2023-01-04T17:02:27.012Z,9.18
2023-01-04T17:05:29.814Z,8.05
2023-01-04T17:08:32.660Z,8.60
2023-01-04T17:12:19.265Z,7.93
2023-01-04T17:15:40.673Z,8.65
2023-01-04T17:18:24.037Z,7.30
2023-01-04T17:21:34.188Z,6.07
2023-01-04T17:24:38.762Z,10.30
2023-01-04T17:27:41.741Z,8.90
2023-01-04T17:30:45.341Z,10.18
2023-01-04T17:33:49.234Z,10.05
2023-01-04T17:36:52.151Z,8.98
2023-01-04T17:39:55.499Z,11.10
2023-01-04T17:42:59.907Z,11.73
2023-01-04T17:46:05.084Z,8.98
2023-01-04T17:49:22.251Z,7.78
2023-01-04T17:55:34.493Z,8.52
2023-01-04T17:58:37.739Z,8.52
2023-01-04T18:01:40.649Z,7.20
2023-01-04T18:04:43.465Z,7.95
2023-01-04T18:07:46.230Z,7.47
2023-01-04T18:11:06.983Z,7.72
2023-01-04T18:14:14.617Z,7.72
2023-01-04T18:17:17.835Z,6.60
2023-01-04T18:20:24.897Z,7.10
2023-01-04T18:23:29.407Z,7.95
2023-01-04T18:26:41.667Z,7.00
2023-01-04T18:29:56.602Z,7.03
2023-01-04T18:32:59.553Z,7.57
2023-01-04T18:36:04.189Z,7.13
2023-01-04T18:39:06.951Z,11.73
2023-01-04T18:42:09.923Z,11.10
2023-01-04T18:45:13.226Z,9.00
2023-01-04T18:48:16.211Z,8.90
2023-01-04T18:51:19.398Z,7.45
2023-01-04T18:54:22.214Z,8.23
2023-01-04T18:57:25.560Z,7.80
2023-01-04T19:00:30.445Z,8.07
2023-01-04T19:03:37.155Z,8.88
2023-01-04T19:06:41.031Z,10.47
2023-01-04T19:09:44.624Z,7.28
2023-01-04T19:12:48.226Z,7.65
2023-01-04T19:15:51.194Z,7.13
2023-01-04T19:18:54.163Z,7.25
2023-01-04T19:21:56.950Z,8.45
2023-01-04T19:24:59.957Z,8.90
2023-01-04T19:28:04.534Z,7.07
2023-01-04T19:31:08.843Z,8.35
2023-01-04T19:34:13.004Z,8.30
2023-01-04T19:37:16.255Z,10.35
2023-01-04T19:40:19.482Z,8.48
2023-01-04T19:43:22.347Z,9.13
2023-01-04T19:46:25.593Z,9.85
2023-01-04T19:49:29.011Z,7.22
2023-01-04T19:52:35.118Z,8.60
2023-01-04T19:55:41.563Z,7.05
2023-01-04T19:58:45.140Z,8.38
2023-01-04T20:01:48.018Z,8.77
2023-01-04T20:04:51.069Z,6.90
2023-01-04T20:07:53.901Z,7.30
2023-01-04T20:10:58.195Z,8.75
2023-01-04T20:14:01.272Z,6.35
2023-01-04T20:17:04.540Z,7.85
2023-01-04T20:20:07.958Z,6.47
2023-01-04T20:23:11.478Z,7.30
2023-01-04T20:26:16.526Z,7.72
2023-01-04T20:29:19.462Z,7.00
2023-01-04T20:32:22.623Z,7.30
2023-01-04T20:35:25.431Z,7.18
2023-01-04T20:38:28.272Z,7.75
2023-01-04T20:41:32.833Z,7.68
2023-01-04T20:44:36.213Z,8.73
2023-01-04T20:47:39.115Z,7.20
2023-01-04T20:50:42.345Z,7.50
2023-01-04T20:53:45.775Z,9.05
2023-01-04T20:56:48.727Z,7.05
2023-01-04T20:59:51.825Z,7.80
2023-01-04T21:02:54.844Z,6.88
2023-01-04T21:06:01.458Z,6.85
2023-01-04T21:09:04.745Z,6.90
2023-01-04T21:12:07.752Z,6.78
2023-01-04T21:15:10.869Z,7.65
2023-01-04T21:18:13.743Z,6.03
2023-01-04T21:21:18.141Z,7.03
2023-01-04T21:24:21.350Z,9.18
2023-01-04T21:27:24.073Z,10.75
2023-01-04T21:30:27.524Z,8.60
2023-01-04T21:33:31.022Z,8.73
2023-01-04T21:36:33.828Z,7.30
2023-01-04T21:39:36.583Z,9.20
2023-01-04T21:42:39.453Z,9.25
2023-01-04T21:45:42.128Z,9.90
2023-01-04T21:48:45.662Z,7.82
2023-01-04T21:51:48.462Z,7.45
2023-01-04T21:54:51.248Z,8.90
2023-01-04T21:57:54.154Z,6.63
2023-01-04T22:00:57.410Z,8.10
2023-01-04T22:04:00.766Z,7.05
2023-01-04T22:07:03.698Z,7.20
2023-01-04T22:10:06.989Z,5.35
2023-01-04T22:13:10.059Z,6.20
2023-01-04T22:16:14.637Z,6.10
2023-01-04T22:19:17.416Z,6.90
2023-01-04T22:22:20.448Z,7.22
2023-01-04T22:25:23.073Z,9.98
2023-01-04T22:28:29.475Z,7.75
2023-01-04T22:31:35.959Z,6.10
2023-01-04T22:34:38.650Z,6.50
2023-01-04T22:37:41.203Z,6.55
2023-01-04T22:40:43.743Z,5.60
2023-01-04T22:43:46.995Z,6.50
2023-01-04T22:46:49.930Z,5.82
2023-01-04T22:49:52.585Z,5.38
2023-01-04T22:52:55.371Z,5.65
2023-01-04T22:56:18.221Z,5.68
2023-01-04T22:59:20.772Z,6.60
2023-01-04T23:02:23.275Z,4.32
2023-01-04T23:05:25.839Z,6.15
2023-01-04T23:08:28.496Z,7.05
2023-01-04T23:11:32.775Z,6.13
2023-01-04T23:14:35.582Z,6.40
2023-01-04T23:17:38.419Z,4.15
2023-01-04T23:20:41.068Z,5.63
2023-01-04T23:23:44.423Z,4.43
2023-01-04T23:26:47.559Z,4.18
2023-01-04T23:29:50.107Z,4.53
2023-01-04T23:32:52.664Z,3.92
2023-01-04T23:35:55.310Z,4.45
2023-01-04T23:38:59.987Z,3.28
2023-01-04T23:42:02.719Z,4.53
2023-01-04T23:45:06.072Z,4.97
2023-01-04T23:48:08.640Z,4.53
2023-01-04T23:51:15.304Z,5.60
2023-01-04T23:54:18.514Z,4.43
2023-01-04T23:57:21.119Z,5.05
